createdAt,value
2023-01-22T00:01:21.944Z,27.14
2023-01-22T00:03:49.819Z,26.92
2023-01-22T00:06:17.344Z,26.79
2023-01-22T00:08:44.905Z,27.05
2023-01-22T00:11:12.678Z,27.31
2023-01-22T00:13:40.854Z,26.89
2023-01-22T00:16:09.292Z,27.06
2023-01-22T00:18:36.840Z,26.80
2023-01-22T00:21:04.413Z,26.79
2023-01-22T00:23:33.440Z,27.10
2023-01-22T00:26:06.832Z,27.07
2023-01-22T00:28:34.583Z,27.48
2023-01-22T00:31:03.512Z,27.50
2023-01-22T00:33:31.784Z,27.25
2023-01-22T00:36:07.091Z,27.57
2023-01-22T00:38:34.814Z,26.82
2023-01-22T00:41:03.879Z,27.09
2023-01-22T00:43:32.252Z,27.11
2023-01-22T00:46:00.624Z,27.65
2023-01-22T00:48:28.399Z,27.83
2023-01-22T00:50:56.185Z,27.53
2023-01-22T00:53:23.892Z,27.90
2023-01-22T00:56:02.806Z,27.58
2023-01-22T00:58:30.896Z,27.60
2023-01-22T01:00:58.925Z,27.18
2023-01-22T01:03:32.391Z,27.50
2023-01-22T01:06:05.970Z,28.22
2023-01-22T01:08:36.818Z,28.40
2023-01-22T01:11:07.742Z,27.63
2023-01-22T01:13:38.806Z,27.56
2023-01-22T01:16:09.341Z,28.04
2023-01-22T01:18:36.983Z,27.75
2023-01-22T01:21:05.502Z,27.71
2023-01-22T01:23:33.952Z,28.03
2023-01-22T01:26:04.979Z,28.12
2023-01-22T01:28:32.560Z,27.90
2023-01-22T01:31:04.344Z,27.08
2023-01-22T01:33:32.721Z,27.77
2023-01-22T01:36:05.806Z,28.21
2023-01-22T01:38:34.282Z,27.69
2023-01-22T01:41:02.014Z,27.93
2023-01-22T01:43:29.873Z,27.73
2023-01-22T01:45:59.896Z,28.38
2023-01-22T01:48:35.398Z,28.06
2023-01-22T01:51:03.258Z,28.29
2023-01-22T01:53:31.379Z,27.76
2023-01-22T01:56:01.849Z,28.15
2023-01-22T01:58:34.476Z,28.37
2023-01-22T02:01:08.831Z,28.00
2023-01-22T02:03:36.841Z,27.84
2023-01-22T02:06:04.648Z,27.76
2023-01-22T02:08:32.929Z,27.99
2023-01-22T02:11:00.682Z,28.19
2023-01-22T02:13:32.661Z,28.31
2023-01-22T02:16:00.520Z,28.20
2023-01-22T02:18:28.322Z,28.41
2023-01-22T02:21:01.413Z,28.64
2023-01-22T02:23:31.455Z,28.37
2023-01-22T02:26:00.500Z,28.65
2023-01-22T02:28:28.081Z,27.89
2023-01-22T02:30:56.729Z,28.27
2023-01-22T02:33:25.637Z,27.74
2023-01-22T02:35:53.147Z,27.30
2023-01-22T02:38:20.754Z,27.85
2023-01-22T02:40:51.081Z,27.43
2023-01-22T02:43:20.517Z,28.09
2023-01-22T02:45:47.996Z,27.45
2023-01-22T02:48:16.344Z,27.99
2023-01-22T02:50:45.398Z,27.61
2023-01-22T02:53:13.772Z,27.87
2023-01-22T02:55:42.256Z,28.24
2023-01-22T02:58:09.954Z,28.27
2023-01-22T03:00:38.766Z,27.92
2023-01-22T03:03:08.033Z,28.35
2023-01-22T03:05:35.799Z,27.52
2023-01-22T03:08:05.130Z,27.51
2023-01-22T03:10:32.681Z,28.15
2023-01-22T03:13:19.310Z,28.10
2023-01-22T03:16:05.506Z,28.10
2023-01-22T03:18:51.955Z,28.31
2023-01-22T03:21:20.576Z,28.47
2023-01-22T03:23:51.255Z,27.98
2023-01-22T03:26:20.595Z,28.22
2023-01-22T03:28:49.313Z,28.26
2023-01-22T03:31:17.640Z,28.38
2023-01-22T03:33:45.466Z,28.22
2023-01-22T03:36:15.622Z,28.44
2023-01-22T03:38:51.272Z,27.93
2023-01-22T03:41:22.139Z,28.00
2023-01-22T03:43:50.284Z,28.06
2023-01-22T03:46:21.808Z,27.77
2023-01-22T03:48:54.370Z,28.84
2023-01-22T03:51:22.976Z,28.81
2023-01-22T03:53:50.902Z,28.44
2023-01-22T03:56:21.462Z,28.72
2023-01-22T03:58:50.428Z,28.03
2023-01-22T04:01:23.138Z,28.69
2023-01-22T04:03:52.812Z,28.67
2023-01-22T04:06:23.883Z,28.73
2023-01-22T04:08:54.866Z,29.03
2023-01-22T04:11:27.472Z,28.83
2023-01-22T04:13:56.106Z,29.17
2023-01-22T04:16:24.759Z,29.39
2023-01-22T04:19:01.264Z,28.81
2023-01-22T04:21:43.876Z,28.91
2023-01-22T04:24:14.365Z,28.94
2023-01-22T04:26:42.036Z,29.28
2023-01-22T04:29:10.375Z,29.21
2023-01-22T04:31:38.189Z,30.08
2023-01-22T04:34:05.818Z,28.88
2023-01-22T04:36:39.451Z,29.08
2023-01-22T04:39:07.011Z,28.85
2023-01-22T04:41:34.675Z,29.20
2023-01-22T04:44:02.781Z,29.21
2023-01-22T04:46:32.449Z,29.18
2023-01-22T04:49:00.454Z,28.95
2023-01-22T04:51:28.106Z,29.57
2023-01-22T04:53:55.755Z,29.07
2023-01-22T04:56:23.605Z,28.95
2023-01-22T04:58:51.236Z,28.71
2023-01-22T05:01:18.750Z,28.95
2023-01-22T05:03:46.619Z,28.85
2023-01-22T05:06:14.252Z,29.10
2023-01-22T05:08:41.902Z,28.80
2023-01-22T05:11:10.997Z,29.12
2023-01-22T05:13:55.355Z,29.17
2023-01-22T05:16:22.954Z,28.78
2023-01-22T05:18:50.588Z,29.36
2023-01-22T05:21:18.235Z,29.02
2023-01-22T05:23:47.268Z,28.87
2023-01-22T05:26:15.090Z,28.68
2023-01-22T05:28:52.179Z,28.73
2023-01-22T05:31:48.577Z,28.74
2023-01-22T05:34:48.770Z,28.39
2023-01-22T05:37:16.510Z,28.52
2023-01-22T05:39:44.103Z,28.94
2023-01-22T05:42:18.834Z,28.89
2023-01-22T05:44:49.031Z,28.84
2023-01-22T05:47:19.782Z,28.87
2023-01-22T05:50:23.096Z,28.10
2023-01-22T05:53:01.740Z,28.44
2023-01-22T05:55:29.797Z,29.06
2023-01-22T05:57:57.430Z,28.42
2023-01-22T06:00:25.799Z,27.93
2023-01-22T06:03:00.326Z,28.22
2023-01-22T06:05:31.186Z,28.36
2023-01-22T06:08:04.414Z,29.03
2023-01-22T06:10:40.240Z,29.16
2023-01-22T06:13:07.679Z,29.10
2023-01-22T06:15:35.316Z,28.78
2023-01-22T06:18:16.208Z,28.74
2023-01-22T06:20:43.883Z,28.73
2023-01-22T06:23:11.403Z,28.93
2023-01-22T06:25:38.957Z,29.17
2023-01-22T06:28:17.697Z,29.14
2023-01-22T06:30:46.261Z,28.71
2023-01-22T06:33:14.399Z,29.16
2023-01-22T06:35:42.200Z,28.70
2023-01-22T06:38:09.774Z,28.64
2023-01-22T06:40:37.456Z,28.29
2023-01-22T06:43:10.701Z,28.28
2023-01-22T06:45:39.424Z,28.40
2023-01-22T06:48:09.535Z,27.96
2023-01-22T06:50:37.010Z,27.75
2023-01-22T06:53:04.802Z,27.56
2023-01-22T06:55:32.303Z,27.74
2023-01-22T06:58:00.144Z,27.39
2023-01-22T07:00:27.720Z,27.99
2023-01-22T07:02:55.271Z,27.48
2023-01-22T07:05:23.251Z,27.94
2023-01-22T07:07:54.825Z,27.59
2023-01-22T07:10:22.819Z,27.30
2023-01-22T07:12:54.276Z,27.42
2023-01-22T07:15:22.114Z,27.02
2023-01-22T07:17:53.739Z,27.62
2023-01-22T07:20:23.048Z,27.49
2023-01-22T07:22:51.982Z,27.19
2023-01-22T07:25:20.387Z,27.23
2023-01-22T07:27:47.928Z,27.47
2023-01-22T07:30:15.501Z,27.39
2023-01-22T07:32:43.179Z,26.43
2023-01-22T07:35:10.621Z,27.53
2023-01-22T07:37:38.067Z,27.27
2023-01-22T07:40:06.355Z,26.73
2023-01-22T07:42:33.791Z,26.24
2023-01-22T07:45:02.122Z,26.51
2023-01-22T07:47:30.669Z,26.89
2023-01-22T07:49:58.144Z,26.63
2023-01-22T07:52:25.743Z,26.16
2023-01-22T07:54:53.441Z,26.54
2023-01-22T07:57:21.107Z,26.86
2023-01-22T07:59:48.701Z,26.58
2023-01-22T08:02:16.569Z,26.34
2023-01-22T08:04:44.209Z,26.70
2023-01-22T08:07:20.378Z,26.67
2023-01-22T08:09:47.840Z,26.35
2023-01-22T08:12:15.646Z,26.62
2023-01-22T08:14:43.379Z,27.07
2023-01-22T08:17:10.913Z,26.47
2023-01-22T08:19:38.637Z,26.92
2023-01-22T08:22:06.263Z,26.82
2023-01-22T08:24:34.934Z,26.78
2023-01-22T08:27:02.986Z,27.04
2023-01-22T08:29:30.578Z,27.07
2023-01-22T08:31:58.329Z,27.31
2023-01-22T08:34:27.318Z,26.68
2023-01-22T08:36:55.558Z,27.59
2023-01-22T08:39:23.505Z,27.16
2023-01-22T08:41:53.055Z,26.91
2023-01-22T08:44:21.054Z,26.77
2023-01-22T08:46:48.720Z,26.83
2023-01-22T08:49:18.427Z,27.66
2023-01-22T08:51:45.898Z,26.94
2023-01-22T08:54:13.434Z,27.04
2023-01-22T08:56:40.988Z,27.26
2023-01-22T08:59:08.455Z,26.90
2023-01-22T09:01:35.997Z,26.64
2023-01-22T09:04:07.931Z,27.32
2023-01-22T09:06:36.544Z,26.76
2023-01-22T09:09:05.263Z,27.46
2023-01-22T09:11:33.205Z,27.06
2023-01-22T09:14:00.686Z,26.85
2023-01-22T09:16:28.801Z,27.44
2023-01-22T09:18:56.346Z,26.84
2023-01-22T09:21:24.186Z,26.91
2023-01-22T09:23:51.927Z,26.49
2023-01-22T09:26:19.874Z,27.06
2023-01-22T09:28:48.627Z,26.43
2023-01-22T09:31:17.590Z,26.76
2023-01-22T09:33:45.344Z,26.19
2023-01-22T09:36:15.509Z,26.13
2023-01-22T09:38:44.415Z,26.80
2023-01-22T09:41:25.326Z,25.63
2023-01-22T09:43:58.062Z,26.14
2023-01-22T09:46:39.723Z,25.77
2023-01-22T09:49:15.628Z,25.86
2023-01-22T09:52:04.266Z,25.92
2023-01-22T09:54:34.296Z,25.42
2023-01-22T09:57:05.337Z,26.05
2023-01-22T09:59:44.852Z,25.56
2023-01-22T10:02:38.472Z,25.94
2023-01-22T10:05:34.288Z,25.78
2023-01-22T10:08:14.459Z,25.57
2023-01-22T10:10:46.135Z,25.07
2023-01-22T10:13:28.149Z,25.62
2023-01-22T10:15:56.803Z,25.11
2023-01-22T10:19:01.462Z,25.15
2023-01-22T10:21:32.284Z,25.68
2023-01-22T10:24:00.721Z,24.62
2023-01-22T10:26:46.975Z,25.40
2023-01-22T10:29:32.825Z,24.32
2023-01-22T10:32:00.267Z,24.86
2023-01-22T10:34:34.744Z,24.77
2023-01-22T10:37:05.154Z,24.60
2023-01-22T10:39:40.967Z,25.05
2023-01-22T10:42:20.022Z,24.82
2023-01-22T10:44:48.129Z,24.47
2023-01-22T10:47:27.537Z,24.72
2023-01-22T10:50:12.892Z,24.56
2023-01-22T10:52:45.315Z,24.94
2023-01-22T10:55:23.601Z,25.15
2023-01-22T10:57:59.236Z,24.95
2023-01-22T11:00:46.770Z,24.59
2023-01-22T11:03:24.352Z,24.69
2023-01-22T11:05:58.191Z,24.53
2023-01-22T11:08:31.131Z,24.56
2023-01-22T11:11:06.345Z,25.02
2023-01-22T11:14:01.071Z,24.60
2023-01-22T11:16:32.586Z,24.27
2023-01-22T11:19:36.048Z,25.00
2023-01-22T11:22:15.239Z,25.06
2023-01-22T11:24:53.066Z,24.46
2023-01-22T11:27:55.999Z,24.88
2023-01-22T11:30:49.374Z,25.04
2023-01-22T11:33:32.163Z,25.20
2023-01-22T11:36:17.340Z,25.30
2023-01-22T11:38:51.641Z,25.39
2023-01-22T11:41:21.958Z,24.89
2023-01-22T11:44:17.369Z,25.17
2023-01-22T11:47:03.514Z,25.40
2023-01-22T11:49:53.033Z,25.02
2023-01-22T11:52:47.608Z,25.36
2023-01-22T11:55:40.275Z,25.59
2023-01-22T11:58:27.970Z,25.68
2023-01-22T12:01:32.972Z,25.81
2023-01-22T12:04:46.695Z,25.34
2023-01-22T12:07:25.567Z,25.49
2023-01-22T12:10:20.369Z,25.55
2023-01-22T12:12:58.248Z,26.01
2023-01-22T12:15:53.605Z,25.21
2023-01-22T12:18:41.477Z,25.20
2023-01-22T12:21:18.179Z,25.18
2023-01-22T12:24:16.650Z,25.30
2023-01-22T12:27:00.799Z,25.06
2023-01-22T12:29:35.655Z,24.58
2023-01-22T12:32:09.508Z,25.18
2023-01-22T12:34:53.085Z,24.79
2023-01-22T12:37:23.731Z,24.92
2023-01-22T12:40:02.958Z,25.08
2023-01-22T12:42:36.409Z,24.46
2023-01-22T12:45:22.798Z,24.79
2023-01-22T12:48:15.331Z,24.62
2023-01-22T12:50:52.289Z,25.09
2023-01-22T12:53:40.099Z,24.61
2023-01-22T12:56:10.292Z,24.85
2023-01-22T12:58:40.732Z,25.28
2023-01-22T13:01:12.121Z,25.43
2023-01-22T13:03:41.785Z,26.02
2023-01-22T13:06:36.152Z,25.63
2023-01-22T13:09:06.086Z,26.31
2023-01-22T13:11:41.558Z,26.21
2023-01-22T13:14:29.203Z,25.94
2023-01-22T13:17:06.469Z,26.06
2023-01-22T13:19:42.529Z,26.47
2023-01-22T13:22:16.326Z,26.61
2023-01-22T13:24:52.668Z,27.41
2023-01-22T13:27:38.308Z,27.16
2023-01-22T13:30:27.830Z,27.38
2023-01-22T13:33:05.492Z,27.65
2023-01-22T13:35:36.938Z,26.87
2023-01-22T13:38:04.535Z,26.95
2023-01-22T13:40:42.699Z,27.23
2023-01-22T13:43:23.041Z,27.96
2023-01-22T13:45:52.774Z,27.75
2023-01-22T13:48:22.549Z,28.19
2023-01-22T13:50:57.110Z,28.39
2023-01-22T13:53:35.437Z,28.44
2023-01-22T13:56:03.231Z,28.84
2023-01-22T13:58:47.174Z,28.64
2023-01-22T14:01:35.855Z,28.68
2023-01-22T14:04:06.824Z,28.49
2023-01-22T14:06:49.932Z,29.00
2023-01-22T14:09:38.257Z,28.83
2023-01-22T14:12:20.698Z,28.95
2023-01-22T14:14:48.649Z,28.65
2023-01-22T14:17:29.173Z,28.85
2023-01-22T14:20:01.760Z,28.99
2023-01-22T14:22:30.544Z,28.96
2023-01-22T14:24:58.297Z,29.41
2023-01-22T14:27:41.373Z,28.71
2023-01-22T14:30:10.501Z,29.49
2023-01-22T14:32:37.967Z,29.52
2023-01-22T14:35:05.716Z,30.13
2023-01-22T14:37:33.233Z,30.15
2023-01-22T14:40:00.723Z,30.34
2023-01-22T14:42:28.525Z,29.92
2023-01-22T14:44:59.016Z,30.57
2023-01-22T14:47:26.414Z,30.35
2023-01-22T14:49:57.547Z,30.29
2023-01-22T14:52:25.258Z,31.14
2023-01-22T14:54:52.705Z,31.49
2023-01-22T14:57:20.776Z,30.85
2023-01-22T14:59:48.284Z,30.69
2023-01-22T15:02:15.844Z,31.10
2023-01-22T15:04:44.115Z,31.08
2023-01-22T15:07:12.648Z,31.03
2023-01-22T15:09:41.309Z,31.41
2023-01-22T15:12:09.771Z,30.65
2023-01-22T15:14:39.807Z,31.20
2023-01-22T15:17:11.614Z,31.10
2023-01-22T15:19:42.857Z,31.18
2023-01-22T15:22:11.461Z,31.21
2023-01-22T15:24:39.811Z,30.55
2023-01-22T15:27:08.111Z,30.29
2023-01-22T15:29:35.831Z,31.04
2023-01-22T15:32:03.870Z,30.67
2023-01-22T15:34:31.379Z,30.88
2023-01-22T15:36:58.999Z,30.55
2023-01-22T15:39:26.439Z,31.63
2023-01-22T15:41:54.005Z,31.15
2023-01-22T15:44:21.516Z,31.39
2023-01-22T15:46:49.098Z,30.85
2023-01-22T15:49:18.414Z,31.01
2023-01-22T15:51:46.029Z,31.19
2023-01-22T15:54:15.960Z,31.72
2023-01-22T15:56:43.538Z,31.47
2023-01-22T15:59:12.835Z,32.06
2023-01-22T16:01:40.493Z,32.01
2023-01-22T16:04:08.893Z,32.28
2023-01-22T16:06:39.465Z,31.82
2023-01-22T16:09:10.485Z,32.12
2023-01-22T16:11:38.176Z,32.56
2023-01-22T16:14:05.872Z,32.86
2023-01-22T16:16:36.817Z,32.06
2023-01-22T16:19:06.772Z,31.87
2023-01-22T16:21:34.781Z,32.78
2023-01-22T16:24:03.237Z,32.22
2023-01-22T16:26:33.775Z,31.98
2023-01-22T16:29:03.202Z,31.83
2023-01-22T16:31:33.468Z,32.28
2023-01-22T16:34:08.317Z,32.17
2023-01-22T16:36:36.232Z,32.40
2023-01-22T16:39:04.619Z,32.12
2023-01-22T16:41:34.518Z,31.58
2023-01-22T16:44:18.316Z,32.54
2023-01-22T16:46:48.674Z,32.15
2023-01-22T16:49:19.433Z,32.09
2023-01-22T16:51:49.897Z,32.01
2023-01-22T16:54:29.555Z,32.51
2023-01-22T16:56:59.231Z,32.22
2023-01-22T16:59:27.682Z,32.04
2023-01-22T17:01:56.821Z,32.51
2023-01-22T17:04:24.496Z,32.03
2023-01-22T17:06:54.791Z,31.82
2023-01-22T17:09:27.891Z,32.77
2023-01-22T17:11:57.925Z,32.07
2023-01-22T17:14:28.863Z,31.96
2023-01-22T17:16:57.424Z,32.15
2023-01-22T17:19:25.248Z,32.30
2023-01-22T17:21:57.031Z,33.11
2023-01-22T17:24:24.754Z,32.88
2023-01-22T17:26:53.400Z,32.85
2023-01-22T17:29:24.701Z,32.77
2023-01-22T17:31:52.772Z,33.03
2023-01-22T17:34:20.494Z,33.21
2023-01-22T17:36:50.873Z,33.56
2023-01-22T17:39:27.991Z,33.02
2023-01-22T17:41:56.565Z,33.52
2023-01-22T17:44:26.583Z,32.79
2023-01-22T17:46:56.306Z,33.67
2023-01-22T17:49:23.803Z,33.53
2023-01-22T17:51:51.573Z,34.25
2023-01-22T17:54:19.969Z,33.64
2023-01-22T17:56:48.512Z,33.67
2023-01-22T17:59:20.764Z,34.12
2023-01-22T18:01:49.341Z,33.63
2023-01-22T18:04:17.022Z,33.82
2023-01-22T18:06:44.886Z,33.43
2023-01-22T18:09:16.005Z,33.99
2023-01-22T18:11:43.861Z,33.90
2023-01-22T18:14:21.942Z,33.72
2023-01-22T18:16:52.085Z,33.35
2023-01-22T18:19:22.147Z,33.96
2023-01-22T18:21:50.308Z,33.39
2023-01-22T18:24:18.422Z,34.25
2023-01-22T18:26:46.148Z,34.20
2023-01-22T18:29:13.901Z,33.49
2023-01-22T18:31:53.722Z,34.12
2023-01-22T18:34:21.725Z,33.39
2023-01-22T18:36:54.105Z,33.69
2023-01-22T18:39:22.570Z,33.96
2023-01-22T18:41:51.890Z,33.67
2023-01-22T18:44:20.624Z,33.46
2023-01-22T18:46:55.674Z,33.66
2023-01-22T18:49:24.687Z,33.58
2023-01-22T18:51:59.432Z,33.36
2023-01-22T18:54:29.532Z,33.18
2023-01-22T18:57:00.551Z,33.09
2023-01-22T18:59:28.225Z,33.97
2023-01-22T19:01:57.741Z,33.67
2023-01-22T19:04:25.600Z,32.97
2023-01-22T19:06:54.614Z,33.55
2023-01-22T19:09:22.610Z,33.57
2023-01-22T19:11:52.497Z,32.71
2023-01-22T19:14:21.434Z,33.83
2023-01-22T19:16:53.783Z,33.28
2023-01-22T19:19:24.904Z,33.13
2023-01-22T19:21:55.788Z,33.81
2023-01-22T19:24:25.283Z,33.01
2023-01-22T19:26:54.939Z,33.15
2023-01-22T19:29:24.399Z,33.63
2023-01-22T19:31:54.306Z,34.08
2023-01-22T19:34:26.075Z,33.13
2023-01-22T19:37:02.765Z,34.33
2023-01-22T19:39:31.119Z,33.95
2023-01-22T19:42:02.391Z,33.81
2023-01-22T19:44:30.585Z,33.92
2023-01-22T19:47:01.710Z,33.67
2023-01-22T19:49:29.842Z,34.19
2023-01-22T19:52:00.122Z,34.10
2023-01-22T19:54:58.240Z,34.11
2023-01-22T19:57:30.395Z,33.47
2023-01-22T19:59:59.421Z,34.10
2023-01-22T20:02:27.271Z,34.22
2023-01-22T20:04:54.921Z,34.28
2023-01-22T20:07:22.899Z,33.21
2023-01-22T20:09:50.653Z,33.75
2023-01-22T20:12:18.432Z,34.05
2023-01-22T20:14:45.903Z,34.55
2023-01-22T20:17:14.119Z,34.24
2023-01-22T20:19:42.496Z,34.72
2023-01-22T20:22:11.290Z,34.35
2023-01-22T20:24:40.663Z,34.15
2023-01-22T20:27:09.295Z,34.85
2023-01-22T20:29:39.028Z,34.01
2023-01-22T20:32:07.419Z,34.42
2023-01-22T20:34:35.045Z,34.01
2023-01-22T20:37:02.700Z,34.24
2023-01-22T20:39:30.193Z,34.08
2023-01-22T20:41:57.636Z,34.09
2023-01-22T20:44:25.616Z,34.46
2023-01-22T20:46:53.322Z,33.86
2023-01-22T20:49:21.011Z,34.02
2023-01-22T20:51:48.909Z,34.73
2023-01-22T20:54:20.236Z,34.72
2023-01-22T20:56:47.836Z,34.61
2023-01-22T20:59:18.547Z,34.42
2023-01-22T21:01:47.488Z,34.05
2023-01-22T21:04:15.715Z,34.48
2023-01-22T21:06:43.509Z,33.86
2023-01-22T21:09:11.741Z,34.77
2023-01-22T21:11:42.906Z,34.00
2023-01-22T21:14:16.749Z,34.71
2023-01-22T21:16:45.013Z,34.24
2023-01-22T21:19:24.579Z,34.59
2023-01-22T21:21:52.953Z,34.58
2023-01-22T21:24:20.525Z,35.14
2023-01-22T21:26:48.080Z,34.85
2023-01-22T21:29:21.534Z,34.70
2023-01-22T21:31:51.369Z,34.66
2023-01-22T21:34:21.483Z,34.38
2023-01-22T21:36:50.783Z,33.68
2023-01-22T21:39:21.309Z,33.72
2023-01-22T21:41:49.466Z,34.32
2023-01-22T21:44:37.858Z,34.61
2023-01-22T21:47:05.754Z,34.73
2023-01-22T21:49:36.380Z,34.63
2023-01-22T21:52:09.516Z,34.87
2023-01-22T21:54:39.725Z,34.78
2023-01-22T21:57:09.446Z,34.65
2023-01-22T21:59:37.196Z,34.77
2023-01-22T22:02:05.869Z,34.44
2023-01-22T22:04:33.442Z,34.86
2023-01-22T22:07:01.049Z,34.89
2023-01-22T22:09:29.313Z,34.81
2023-01-22T22:11:59.938Z,35.59
2023-01-22T22:14:30.403Z,35.27
2023-01-22T22:16:57.969Z,35.29
2023-01-22T22:19:25.621Z,34.84
2023-01-22T22:21:53.286Z,35.05
2023-01-22T22:24:21.207Z,35.30
2023-01-22T22:26:48.876Z,36.15
2023-01-22T22:29:16.419Z,36.00
2023-01-22T22:31:44.047Z,36.15
2023-01-22T22:34:14.607Z,36.57
2023-01-22T22:36:42.406Z,36.26
2023-01-22T22:39:10.647Z,36.71
2023-01-22T22:41:39.499Z,35.86
2023-01-22T22:44:08.499Z,36.12
2023-01-22T22:46:38.417Z,36.90
2023-01-22T22:49:06.933Z,36.36
2023-01-22T22:51:40.274Z,36.64
2023-01-22T22:54:16.728Z,37.74
2023-01-22T22:56:46.065Z,37.89
2023-01-22T22:59:14.877Z,37.56
2023-01-22T23:01:42.587Z,37.50
2023-01-22T23:04:12.075Z,38.64
2023-01-22T23:06:42.271Z,39.66
2023-01-22T23:09:12.666Z,38.49
2023-01-22T23:11:40.995Z,38.07
2023-01-22T23:14:08.936Z,37.76
2023-01-22T23:16:42.334Z,39.44
2023-01-22T23:19:15.631Z,36.87
2023-01-22T23:21:44.085Z,37.87
2023-01-22T23:24:13.578Z,37.43
2023-01-22T23:26:43.116Z,36.98
2023-01-22T23:29:12.310Z,37.52
2023-01-22T23:31:40.566Z,37.34
2023-01-22T23:34:15.904Z,37.81
2023-01-22T23:36:47.747Z,37.48
2023-01-22T23:39:18.450Z,37.59
2023-01-22T23:41:46.452Z,38.34
2023-01-22T23:44:14.023Z,37.84
2023-01-22T23:46:42.247Z,38.48
2023-01-22T23:49:10.542Z,38.12
2023-01-22T23:51:42.405Z,37.88
2023-01-22T23:54:10.069Z,38.24
2023-01-22T23:56:38.988Z,39.04
2023-01-22T23:59:06.660Z,38.65
